createdAt,value
2019-06-08T00:00:41.415Z,77.40
2019-06-08T00:01:36.829Z,77.59
2019-06-08T00:02:36.774Z,77.59
2019-06-08T00:03:36.704Z,77.11
2019-06-08T00:04:36.624Z,77.50
2019-06-08T00:05:37.381Z,77.40
2019-06-08T00:06:36.847Z,77.01
2019-06-08T00:07:36.726Z,77.50
2019-06-08T00:08:36.681Z,77.30
2019-06-08T00:09:37.403Z,77.88
2019-06-08T00:10:39.392Z,77.69
2019-06-08T00:11:36.686Z,78.17
2019-06-08T00:12:36.790Z,78.08
2019-06-08T00:13:36.692Z,78.27
2019-06-08T00:16:36.695Z,78.08
2019-06-08T00:17:38.829Z,78.23
2019-06-08T00:18:36.437Z,79.14
2019-06-08T00:19:38.285Z,78.61
2019-06-08T00:20:36.700Z,78.52
2019-06-08T00:21:36.538Z,78.61
2019-06-08T00:22:36.517Z,78.42
2019-06-08T00:23:36.495Z,78.33
2019-06-08T00:24:41.571Z,78.81
2019-06-08T00:25:36.528Z,78.81
2019-06-08T00:26:36.560Z,79.29
2019-06-08T00:27:39.495Z,79.19
2019-06-08T00:28:37.554Z,79.49
2019-06-08T00:29:36.557Z,78.71
2019-06-08T00:30:37.516Z,78.81
2019-06-08T00:31:36.420Z,79.00
2019-06-08T00:32:36.437Z,79.10
2019-06-08T00:33:36.967Z,78.81
2019-06-08T00:34:40.956Z,78.52
2019-06-08T00:35:36.453Z,78.03
2019-06-08T00:36:36.421Z,78.13
2019-06-08T00:37:36.322Z,77.84
2019-06-08T00:38:36.499Z,78.13
2019-06-08T00:40:38.000Z,79.19
2019-06-08T00:41:36.942Z,78.52
2019-06-08T00:42:36.272Z,79.10
2019-06-08T00:43:37.014Z,79.19
2019-06-08T00:44:36.392Z,78.81
2019-06-08T00:45:36.400Z,79.49
2019-06-08T00:46:51.424Z,80.06
2019-06-08T00:47:47.441Z,80.64
2019-06-08T00:48:36.222Z,80.54
2019-06-08T00:49:36.840Z,80.16
2019-06-08T00:50:36.399Z,80.22
2019-06-08T00:51:37.015Z,80.31
2019-06-08T00:52:36.264Z,80.41
2019-06-08T00:53:36.171Z,80.22
2019-06-08T00:54:37.037Z,80.79
2019-06-08T00:56:36.200Z,81.37
2019-06-08T00:57:36.224Z,81.27
2019-06-08T00:58:37.931Z,81.09
2019-06-08T01:00:38.090Z,81.37
2019-06-08T01:01:36.311Z,80.99
2019-06-08T01:02:36.184Z,80.89
2019-06-08T01:03:37.929Z,80.99
2019-06-08T01:04:36.133Z,81.57
2019-06-08T01:05:36.161Z,81.57
2019-06-08T01:06:36.246Z,81.27
2019-06-08T01:07:36.135Z,81.57
2019-06-08T01:08:36.199Z,82.05
2019-06-08T01:09:36.062Z,81.47
2019-06-08T01:10:36.915Z,81.95
2019-06-08T01:11:36.239Z,82.53
2019-06-08T01:12:36.085Z,82.49
2019-06-08T01:13:36.199Z,81.62
2019-06-08T01:14:35.974Z,81.76
2019-06-08T01:15:37.032Z,82.14
2019-06-08T01:16:36.134Z,82.01
2019-06-08T01:17:36.151Z,82.24
2019-06-08T01:18:35.941Z,82.01
2019-06-08T01:19:36.133Z,81.66
2019-06-08T01:20:37.553Z,81.27
2019-06-08T01:21:36.015Z,81.66
2019-06-08T01:22:36.117Z,81.47
2019-06-08T01:23:35.864Z,81.76
2019-06-08T01:24:40.939Z,81.27
2019-06-08T01:25:36.084Z,81.66
2019-06-08T01:26:41.104Z,80.89
2019-06-08T01:28:36.046Z,80.89
2019-06-08T01:29:35.849Z,80.99
2019-06-08T01:30:35.820Z,81.37
2019-06-08T01:31:36.575Z,81.09
2019-06-08T01:32:35.903Z,81.27
2019-06-08T01:33:36.349Z,82.14
2019-06-08T01:34:37.336Z,81.47
2019-06-08T01:35:42.609Z,81.18
2019-06-08T01:36:35.913Z,81.09
2019-06-08T01:37:35.957Z,80.69
2019-06-08T01:38:37.446Z,80.51
2019-06-08T01:39:35.829Z,80.12
2019-06-08T01:40:36.382Z,80.12
2019-06-08T01:41:36.456Z,79.87
2019-06-08T01:42:35.704Z,79.10
2019-06-08T01:43:35.926Z,79.19
2019-06-08T01:44:38.378Z,79.00
2019-06-08T01:45:35.989Z,79.29
2019-06-08T01:46:35.924Z,78.61
2019-06-08T01:47:35.954Z,79.10
2019-06-08T01:48:35.896Z,79.29
2019-06-08T01:49:35.871Z,79.10
2019-06-08T01:50:35.868Z,78.91
2019-06-08T01:51:35.955Z,78.61
2019-06-08T01:52:37.526Z,78.03
2019-06-08T01:53:35.826Z,77.98
2019-06-08T01:54:35.694Z,78.36
2019-06-08T01:55:35.818Z,78.17
2019-06-08T01:56:36.462Z,78.27
2019-06-08T01:57:35.876Z,78.36
2019-06-08T01:58:35.711Z,78.56
2019-06-08T01:59:35.709Z,78.56
2019-06-08T02:00:40.931Z,79.14
2019-06-08T02:01:36.580Z,79.19
2019-06-08T02:02:35.610Z,79.29
2019-06-08T02:03:35.797Z,79.10
2019-06-08T02:04:35.722Z,79.77
2019-06-08T02:05:35.807Z,79.68
2019-06-08T02:06:36.375Z,80.26
2019-06-08T02:07:35.608Z,80.74
2019-06-08T02:08:35.693Z,80.74
2019-06-08T02:09:36.066Z,80.64
2019-06-08T02:10:35.450Z,80.93
2019-06-08T02:11:42.408Z,80.69
2019-06-08T02:12:37.567Z,81.18
2019-06-08T02:13:35.658Z,81.18
2019-06-08T02:14:35.612Z,81.76
2019-06-08T02:15:35.633Z,81.66
2019-06-08T02:16:38.393Z,81.95
2019-06-08T02:17:35.598Z,81.95
2019-06-08T02:18:47.010Z,82.14
2019-06-08T02:19:35.523Z,81.27
2019-06-08T02:21:39.024Z,81.76
2019-06-08T02:22:35.506Z,81.37
2019-06-08T02:23:37.445Z,81.37
2019-06-08T02:24:35.613Z,80.74
2019-06-08T02:25:35.697Z,80.64
2019-06-08T02:27:35.825Z,80.83
2019-06-08T02:28:36.985Z,80.74
2019-06-08T02:29:38.027Z,80.64
2019-06-08T02:30:37.179Z,80.54
2019-06-08T02:31:37.472Z,80.93
2019-06-08T02:32:37.261Z,80.93
2019-06-08T02:33:37.168Z,80.93
2019-06-08T02:34:37.538Z,80.74
2019-06-08T02:35:37.591Z,80.74
2019-06-08T02:36:35.881Z,80.64
2019-06-08T02:38:37.158Z,80.64
2019-06-08T02:39:38.477Z,80.74
2019-06-08T02:40:38.027Z,80.35
2019-06-08T02:41:37.558Z,80.39
2019-06-08T02:42:36.997Z,80.30
2019-06-08T02:43:35.827Z,80.26
2019-06-08T02:44:36.989Z,80.39
2019-06-08T02:45:36.975Z,79.72
2019-06-08T02:46:38.164Z,80.10
2019-06-08T02:47:36.726Z,80.00
2019-06-08T02:48:54.714Z,79.91
2019-06-08T02:49:35.588Z,79.62
2019-06-08T02:50:37.302Z,79.43
2019-06-08T02:51:46.348Z,79.52
2019-06-08T02:52:36.293Z,79.52
2019-06-08T02:53:36.757Z,79.91
2019-06-08T02:54:37.216Z,79.72
2019-06-08T02:55:37.151Z,79.72
2019-06-08T02:56:36.665Z,79.62
2019-06-08T02:58:36.899Z,79.52
2019-06-08T02:59:42.135Z,79.33
2019-06-08T03:00:37.387Z,79.24
2019-06-08T03:02:36.864Z,79.08
2019-06-08T03:04:36.402Z,78.89
2019-06-08T03:05:35.790Z,78.99
2019-06-08T03:06:36.605Z,79.37
2019-06-08T03:07:36.689Z,78.89
2019-06-08T03:08:36.278Z,79.37
2019-06-08T03:09:36.510Z,79.37
2019-06-08T03:10:49.992Z,79.56
2019-06-08T03:11:36.658Z,79.17
2019-06-08T03:12:36.953Z,78.99
2019-06-08T03:13:37.867Z,79.17
2019-06-08T03:15:36.751Z,79.37
2019-06-08T03:16:35.861Z,79.56
2019-06-08T03:17:35.559Z,79.17
2019-06-08T03:18:35.849Z,79.27
2019-06-08T03:19:35.698Z,79.47
2019-06-08T03:20:35.770Z,79.47
2019-06-08T03:22:36.683Z,79.08
2019-06-08T03:23:36.261Z,78.79
2019-06-08T03:24:36.578Z,79.17
2019-06-08T03:26:36.471Z,78.69
2019-06-08T03:27:36.750Z,79.17
2019-06-08T03:28:35.644Z,78.50
2019-06-08T03:31:42.578Z,78.44
2019-06-08T03:32:34.813Z,78.25
2019-06-08T03:34:39.717Z,77.96
2019-06-08T03:35:26.683Z,78.44
2019-06-08T03:36:26.639Z,77.67
2019-06-08T03:37:26.603Z,77.96
2019-06-08T03:38:26.626Z,78.19
2019-06-08T03:39:29.491Z,77.42
2019-06-08T03:40:26.500Z,77.51
2019-06-08T03:41:27.457Z,77.71
2019-06-08T03:42:26.437Z,77.42
2019-06-08T03:43:26.585Z,77.61
2019-06-08T03:44:29.588Z,77.61
2019-06-08T03:45:26.670Z,77.42
2019-06-08T03:46:26.496Z,77.17
2019-06-08T03:47:26.591Z,77.55
2019-06-08T03:48:26.498Z,77.84
2019-06-08T03:49:41.051Z,77.65
2019-06-08T03:50:26.610Z,76.97
2019-06-08T03:51:26.509Z,76.97
2019-06-08T03:52:26.965Z,77.17
2019-06-08T03:53:26.489Z,76.97
2019-06-08T03:54:28.009Z,77.01
2019-06-08T03:55:26.513Z,76.91
2019-06-08T03:56:26.479Z,77.01
2019-06-08T03:57:26.370Z,76.72
2019-06-08T03:58:26.500Z,76.72
2019-06-08T03:59:26.467Z,76.04
2019-06-08T04:00:26.452Z,76.24
2019-06-08T04:01:26.420Z,76.04
2019-06-08T04:02:26.547Z,76.24
2019-06-08T04:03:27.104Z,76.08
2019-06-08T04:04:26.553Z,75.89
2019-06-08T04:05:26.392Z,75.60
2019-06-08T04:06:26.547Z,75.79
2019-06-08T04:07:26.363Z,75.31
2019-06-08T04:08:28.036Z,75.11
2019-06-08T04:09:26.400Z,75.50
2019-06-08T04:10:26.317Z,75.40
2019-06-08T04:11:26.485Z,75.02
2019-06-08T04:12:26.441Z,75.60
2019-06-08T04:13:26.400Z,75.31
2019-06-08T04:14:27.910Z,75.11
2019-06-08T04:15:26.488Z,75.40
2019-06-08T04:16:26.976Z,75.50
2019-06-08T04:17:26.507Z,75.40
2019-06-08T04:18:26.367Z,75.31
2019-06-08T04:19:26.991Z,74.69
2019-06-08T04:20:29.192Z,75.40
2019-06-08T04:21:26.344Z,75.50
2019-06-08T04:22:26.366Z,75.37
2019-06-08T04:23:33.104Z,75.75
2019-06-08T04:24:26.361Z,75.50
2019-06-08T04:25:26.216Z,75.65
2019-06-08T04:26:26.225Z,75.56
2019-06-08T04:27:26.357Z,75.95
2019-06-08T04:28:28.156Z,75.75
2019-06-08T04:29:26.302Z,75.95
2019-06-08T04:30:26.299Z,75.65
2019-06-08T04:31:26.109Z,75.46
2019-06-08T04:32:26.278Z,75.37
2019-06-08T04:33:26.852Z,75.50
2019-06-08T04:34:27.008Z,75.31
2019-06-08T04:36:41.264Z,75.11
2019-06-08T04:37:26.293Z,75.24
2019-06-08T04:38:26.143Z,74.76
2019-06-08T04:39:26.245Z,74.66
2019-06-08T04:40:26.022Z,74.57
2019-06-08T04:41:26.231Z,74.86
2019-06-08T04:42:27.181Z,74.76
2019-06-08T04:43:26.000Z,74.02
2019-06-08T04:44:26.106Z,73.44
2019-06-08T04:45:26.309Z,72.57
2019-06-08T04:46:26.133Z,72.57
2019-06-08T04:47:26.362Z,72.71
2019-06-08T04:48:27.259Z,72.80
2019-06-08T04:49:26.180Z,72.80
2019-06-08T04:50:27.039Z,71.83
2019-06-08T04:51:26.136Z,71.54
2019-06-08T04:52:26.211Z,71.44
2019-06-08T04:53:26.035Z,71.38
2019-06-08T04:54:26.151Z,71.58
2019-06-08T04:55:26.231Z,71.67
2019-06-08T04:56:26.022Z,71.67
2019-06-08T04:57:26.043Z,71.28
2019-06-08T04:58:26.001Z,71.42
2019-06-08T04:59:26.184Z,71.03
2019-06-08T05:00:26.147Z,71.22
2019-06-08T05:01:26.084Z,71.22
2019-06-08T05:02:26.092Z,71.42
2019-06-08T05:04:26.229Z,70.64
2019-06-08T05:05:26.562Z,70.77
2019-06-08T05:07:26.100Z,70.67
2019-06-08T05:08:26.028Z,70.48
2019-06-08T05:09:26.024Z,70.19
2019-06-08T05:10:26.000Z,69.41
2019-06-08T05:11:26.112Z,69.41
2019-06-08T05:12:26.079Z,69.12
2019-06-08T05:13:25.949Z,69.02
2019-06-08T05:14:26.045Z,69.02
2019-06-08T05:15:26.084Z,69.25
2019-06-08T05:16:26.116Z,68.77
2019-06-08T05:18:26.207Z,68.32
2019-06-08T05:19:25.994Z,67.93
2019-06-08T05:20:38.400Z,66.37
2019-06-08T05:21:26.062Z,66.76
2019-06-08T05:22:25.991Z,66.79
2019-06-08T05:23:26.076Z,66.60
2019-06-08T05:24:26.031Z,66.34
2019-06-08T05:25:26.001Z,65.27
2019-06-08T05:26:25.960Z,65.37
2019-06-08T05:28:26.004Z,65.27
2019-06-08T05:29:26.676Z,65.30
2019-06-08T05:30:28.127Z,65.30
2019-06-08T05:31:26.001Z,64.72
2019-06-08T05:33:26.051Z,64.91
2019-06-08T05:34:25.963Z,64.62
2019-06-08T05:35:26.072Z,64.32
2019-06-08T05:36:26.075Z,64.81
2019-06-08T05:37:26.014Z,65.01
2019-06-08T05:38:25.983Z,65.01
2019-06-08T05:39:25.909Z,65.20
2019-06-08T05:40:25.877Z,64.81
2019-06-08T05:41:25.944Z,64.81
2019-06-08T05:42:25.969Z,64.72
2019-06-08T05:43:27.247Z,64.04
2019-06-08T05:44:25.990Z,64.72
2019-06-08T05:45:25.905Z,64.07
2019-06-08T05:46:25.881Z,64.26
2019-06-08T05:47:26.749Z,64.45
2019-06-08T05:48:25.995Z,64.55
2019-06-08T05:49:27.166Z,64.55
2019-06-08T05:50:25.991Z,64.26
2019-06-08T05:51:27.650Z,64.65
2019-06-08T05:53:25.812Z,64.17
2019-06-08T05:54:25.838Z,64.17
2019-06-08T05:55:25.956Z,64.65
2019-06-08T05:57:25.881Z,63.87
2019-06-08T05:58:26.749Z,64.65
2019-06-08T05:59:25.828Z,64.45
2019-06-08T06:00:26.454Z,65.11
2019-06-08T06:01:25.941Z,64.72
2019-06-08T06:02:25.877Z,65.40
2019-06-08T06:03:25.808Z,64.98
2019-06-08T06:04:25.753Z,65.56
2019-06-08T06:05:25.721Z,65.85
2019-06-08T06:07:25.888Z,65.27
2019-06-08T06:08:33.918Z,64.78
2019-06-08T06:10:20.311Z,65.17
2019-06-08T06:11:18.808Z,65.27
2019-06-08T06:13:34.722Z,65.20
2019-06-08T06:14:25.216Z,64.42
2019-06-08T06:17:19.076Z,64.55
2019-06-08T06:19:18.250Z,64.20
2019-06-08T06:20:18.224Z,62.18
2019-06-08T06:21:21.104Z,62.47
2019-06-08T06:22:18.188Z,61.99
2019-06-08T06:23:19.063Z,62.21
2019-06-08T06:24:18.696Z,62.05
2019-06-08T06:25:18.217Z,61.36
2019-06-08T06:28:18.193Z,61.10
2019-06-08T06:29:18.132Z,60.61
2019-06-08T06:30:19.085Z,60.55
2019-06-08T06:31:18.149Z,60.35
2019-06-08T06:32:18.152Z,60.25
2019-06-08T06:33:18.122Z,60.25
2019-06-08T06:34:19.034Z,60.74
2019-06-08T06:35:20.102Z,60.16
2019-06-08T06:36:18.659Z,59.86
2019-06-08T06:37:18.085Z,60.25
2019-06-08T06:38:18.202Z,60.35
2019-06-08T06:39:18.718Z,60.25
2019-06-08T06:40:18.111Z,60.25
2019-06-08T06:42:18.139Z,59.86
2019-06-08T06:43:18.090Z,59.86
2019-06-08T06:44:18.099Z,59.50
2019-06-08T06:45:18.136Z,59.79
2019-06-08T06:46:18.669Z,59.11
2019-06-08T06:47:18.150Z,59.01
2019-06-08T06:48:18.116Z,59.43
2019-06-08T06:49:18.142Z,58.94
2019-06-08T06:51:26.328Z,57.89
2019-06-08T06:52:18.091Z,58.28
2019-06-08T06:55:18.126Z,57.70
2019-06-08T06:56:18.129Z,57.21
2019-06-08T06:57:20.146Z,57.43
2019-06-08T06:58:18.091Z,57.63
2019-06-08T07:00:18.091Z,57.26
2019-06-08T07:01:18.141Z,57.36
2019-06-08T07:03:18.073Z,56.41
2019-06-08T07:07:18.070Z,55.53
2019-06-08T07:08:17.999Z,55.04
2019-06-08T07:09:18.674Z,55.07
2019-06-08T07:10:18.017Z,54.19
2019-06-08T07:11:20.650Z,54.58
2019-06-08T07:12:18.028Z,54.77
2019-06-08T07:13:18.102Z,54.80
2019-06-08T07:14:18.063Z,54.41
2019-06-08T07:15:18.071Z,53.75
2019-06-08T07:16:19.068Z,53.85
2019-06-08T07:17:18.044Z,53.67
2019-06-08T07:20:18.609Z,53.28
2019-06-08T07:21:19.634Z,53.11
2019-06-08T07:23:18.513Z,51.84
2019-06-08T07:24:18.011Z,51.84
2019-06-08T07:27:17.975Z,51.25
2019-06-08T07:28:17.982Z,51.47
2019-06-08T07:29:17.994Z,51.47
2019-06-08T07:30:18.076Z,51.30
2019-06-08T07:32:18.035Z,50.71
2019-06-08T07:33:19.620Z,50.34
2019-06-08T07:34:18.012Z,50.44
2019-06-08T07:35:17.959Z,49.65
2019-06-08T07:37:17.971Z,49.38
2019-06-08T07:38:17.985Z,49.75
2019-06-08T07:40:18.003Z,49.18
2019-06-08T07:43:17.981Z,48.13
2019-06-08T07:44:17.991Z,48.44
2019-06-08T07:47:17.934Z,46.79
2019-06-08T07:49:18.498Z,44.22
2019-06-08T07:50:17.996Z,43.87
2019-06-08T07:51:17.964Z,42.72
2019-06-08T07:52:17.886Z,41.85
2019-06-08T07:53:17.958Z,40.70
2019-06-08T07:55:17.998Z,38.79
2019-06-08T07:57:17.934Z,38.10
2019-06-08T07:58:18.603Z,37.72
2019-06-08T07:59:18.022Z,37.15
2019-06-08T08:00:17.985Z,37.06
2019-06-08T08:01:17.964Z,36.96
2019-06-08T08:02:18.015Z,36.12
2019-06-08T08:05:17.975Z,33.95
2019-06-08T08:08:17.952Z,31.97
2019-06-08T08:09:18.623Z,31.50
2019-06-08T08:10:18.497Z,31.34
2019-06-08T08:11:17.950Z,30.07
2019-06-08T08:13:19.680Z,28.30
2019-06-08T08:15:18.015Z,28.02
2019-06-08T08:16:19.628Z,27.24
2019-06-08T08:17:18.006Z,27.06
2019-06-08T08:18:17.998Z,26.27
2019-06-08T08:19:18.095Z,25.88
2019-06-08T08:20:18.103Z,25.24
2019-06-08T08:22:24.978Z,25.74
2019-06-08T08:23:18.035Z,26.09
2019-06-08T08:24:18.052Z,26.13
2019-06-08T08:25:18.194Z,25.76
2019-06-08T08:26:18.094Z,25.17
2019-06-08T08:30:11.797Z,24.01
2019-06-08T08:31:13.237Z,23.11
2019-06-08T08:33:12.933Z,23.35
2019-06-08T08:34:06.744Z,22.95
2019-06-08T08:36:01.637Z,22.68
2019-06-08T08:37:02.014Z,21.98
2019-06-08T08:38:51.843Z,20.98
2019-06-08T08:39:51.809Z,21.09
2019-06-08T08:41:45.241Z,20.49
2019-06-08T08:42:44.637Z,19.67
2019-06-08T08:44:38.173Z,19.37
2019-06-08T08:45:38.175Z,20.23
2019-06-08T08:47:31.445Z,21.39
2019-06-08T08:48:31.781Z,21.37
2019-06-08T08:50:28.339Z,20.71
2019-06-08T08:51:27.776Z,21.30
2019-06-08T08:53:18.131Z,22.55
2019-06-08T08:54:18.364Z,22.54
2019-06-08T08:56:11.387Z,21.48
2019-06-08T08:57:11.359Z,20.90
2019-06-08T08:59:04.745Z,20.51
2019-06-08T09:00:05.400Z,19.90
2019-06-08T09:02:01.324Z,20.22
2019-06-08T09:03:17.157Z,19.72
2019-06-08T09:04:52.120Z,19.12
2019-06-08T09:05:52.432Z,19.04
2019-06-08T09:06:52.434Z,19.26
2019-06-08T09:07:52.239Z,19.06
2019-06-08T09:08:53.723Z,18.85
2019-06-08T09:09:52.372Z,19.17
2019-06-08T09:10:52.309Z,19.18
2019-06-08T09:11:51.753Z,19.19
2019-06-08T09:12:52.301Z,19.21
2019-06-08T09:13:52.378Z,18.82
2019-06-08T09:14:52.774Z,18.61
2019-06-08T09:15:52.277Z,18.01
2019-06-08T09:16:53.613Z,17.92
2019-06-08T09:17:52.319Z,17.93
2019-06-08T09:18:52.745Z,18.05
2019-06-08T09:19:52.371Z,17.33
2019-06-08T09:20:52.388Z,16.92
2019-06-08T09:21:52.479Z,17.02
2019-06-08T09:22:59.175Z,15.69
2019-06-08T09:23:52.852Z,15.78
2019-06-08T09:24:52.683Z,15.99
2019-06-08T09:25:52.707Z,15.88
2019-06-08T09:26:52.954Z,16.39
2019-06-08T09:27:52.721Z,16.39
2019-06-08T09:28:51.676Z,15.99
2019-06-08T09:29:53.357Z,16.61
2019-06-08T09:30:52.055Z,16.08
2019-06-08T09:31:52.379Z,15.99
2019-06-08T09:32:52.368Z,15.78
2019-06-08T09:33:55.919Z,16.09
2019-06-08T09:34:52.947Z,15.59
2019-06-08T09:35:53.024Z,15.90
2019-06-08T09:36:52.599Z,15.70
2019-06-08T09:37:53.228Z,15.90
2019-06-08T09:38:53.395Z,15.40
2019-06-08T09:39:53.849Z,15.49
2019-06-08T09:40:53.249Z,15.59
2019-06-08T09:41:53.667Z,15.89
2019-06-08T09:42:55.912Z,15.79
2019-06-08T09:43:53.843Z,15.90
2019-06-08T09:44:53.756Z,15.70
2019-06-08T09:45:53.680Z,16.00
2019-06-08T09:46:53.591Z,15.79
2019-06-08T09:47:53.691Z,15.40
2019-06-08T09:48:53.978Z,15.08
2019-06-08T09:49:53.741Z,15.28
2019-06-08T09:50:52.985Z,15.18
2019-06-08T09:51:53.776Z,15.48
2019-06-08T09:53:06.279Z,15.19
2019-06-08T09:53:54.208Z,15.39
2019-06-08T09:54:54.149Z,15.40
2019-06-08T09:55:53.301Z,15.09
2019-06-08T09:56:53.588Z,14.90
2019-06-08T09:57:51.849Z,14.81
2019-06-08T09:58:51.841Z,14.92
2019-06-08T09:59:54.781Z,15.13
2019-06-08T10:00:54.524Z,14.52
2019-06-08T10:01:52.046Z,14.31
2019-06-08T10:02:51.854Z,14.31
2019-06-08T10:03:52.201Z,14.40
2019-06-08T10:04:51.939Z,14.40
2019-06-08T10:05:51.988Z,14.51
2019-06-08T10:06:51.841Z,14.41
2019-06-08T10:07:52.009Z,14.51
2019-06-08T10:08:51.976Z,14.31
2019-06-08T10:09:51.929Z,13.69
2019-06-08T10:10:54.391Z,13.90
2019-06-08T10:11:52.013Z,14.62
2019-06-08T10:12:52.100Z,14.42
2019-06-08T10:13:52.071Z,14.02
2019-06-08T10:14:52.074Z,14.03
2019-06-08T10:15:54.785Z,13.71
2019-06-08T10:16:52.126Z,13.93
2019-06-08T10:17:52.121Z,13.92
2019-06-08T10:18:54.820Z,13.92
2019-06-08T10:19:52.159Z,13.91
2019-06-08T10:20:52.084Z,13.71
2019-06-08T10:21:52.121Z,13.81
2019-06-08T10:22:52.220Z,13.81
2019-06-08T10:23:52.144Z,13.92
2019-06-08T10:24:55.307Z,13.72
2019-06-08T10:25:52.261Z,13.94
2019-06-08T10:26:52.417Z,13.84
2019-06-08T10:27:52.185Z,13.43
2019-06-08T10:28:52.811Z,13.54
2019-06-08T10:29:52.352Z,13.53
2019-06-08T10:30:52.221Z,13.22
2019-06-08T10:31:52.239Z,13.12
2019-06-08T10:32:52.439Z,13.52
2019-06-08T10:33:52.237Z,13.21
2019-06-08T10:34:52.239Z,13.42
2019-06-08T10:35:52.939Z,13.12
2019-06-08T10:36:52.253Z,13.53
2019-06-08T10:37:55.271Z,13.23
2019-06-08T10:38:52.442Z,13.12
2019-06-08T10:39:52.449Z,13.11
2019-06-08T10:40:52.373Z,13.31
2019-06-08T10:41:52.415Z,13.21
2019-06-08T10:42:53.300Z,13.20
2019-06-08T10:43:52.445Z,13.51
2019-06-08T10:44:52.431Z,13.61
2019-06-08T10:45:52.588Z,13.30
2019-06-08T10:46:52.484Z,13.51
2019-06-08T10:47:52.557Z,13.61
2019-06-08T10:48:52.568Z,13.20
2019-06-08T10:49:52.463Z,13.82
2019-06-08T10:50:52.585Z,13.50
2019-06-08T10:51:52.411Z,13.60
2019-06-08T10:52:52.448Z,13.61
2019-06-08T10:53:53.775Z,13.61
2019-06-08T10:54:53.286Z,13.72
2019-06-08T10:55:52.535Z,13.00
2019-06-08T10:56:52.569Z,13.42
2019-06-08T10:57:53.367Z,13.21
2019-06-08T10:58:52.586Z,13.63
2019-06-08T10:59:52.483Z,13.12
2019-06-08T11:00:52.761Z,13.23
2019-06-08T11:01:52.623Z,13.02
2019-06-08T11:02:53.414Z,13.13
2019-06-08T11:03:52.678Z,13.24
2019-06-08T11:04:52.762Z,12.92
2019-06-08T11:05:52.661Z,13.22
2019-06-08T11:06:53.449Z,13.31
2019-06-08T11:07:52.860Z,13.50
2019-06-08T11:08:52.697Z,13.60
2019-06-08T11:09:52.730Z,14.00
2019-06-08T11:10:52.717Z,13.90
2019-06-08T11:11:52.766Z,13.91
2019-06-08T11:12:52.753Z,13.90
2019-06-08T11:13:52.691Z,13.79
2019-06-08T11:14:52.741Z,13.79
2019-06-08T11:15:53.293Z,14.00
2019-06-08T11:16:52.857Z,14.76
2019-06-08T11:17:52.846Z,15.67
2019-06-08T11:18:52.775Z,15.48
2019-06-08T11:19:52.751Z,15.28
2019-06-08T11:20:52.783Z,14.99
2019-06-08T11:21:58.042Z,14.90
2019-06-08T11:22:52.866Z,14.79
2019-06-08T11:24:05.492Z,14.79
2019-06-08T11:24:52.862Z,14.89
2019-06-08T11:25:52.985Z,15.00
2019-06-08T11:26:52.782Z,15.01
2019-06-08T11:27:52.945Z,15.01
2019-06-08T11:28:52.950Z,14.92
2019-06-08T11:29:53.030Z,14.61
2019-06-08T11:30:53.004Z,14.60
2019-06-08T11:31:52.963Z,15.01
2019-06-08T11:32:57.711Z,14.81
2019-06-08T11:33:52.964Z,15.01
2019-06-08T11:34:52.958Z,15.12
2019-06-08T11:35:52.945Z,15.11
2019-06-08T11:36:52.980Z,14.90
2019-06-08T11:37:53.021Z,15.31
2019-06-08T11:38:53.143Z,15.22
2019-06-08T11:39:54.026Z,14.91
2019-06-08T11:40:53.069Z,15.02
2019-06-08T11:41:53.109Z,15.12
2019-06-08T11:42:53.007Z,15.01
2019-06-08T11:43:53.183Z,15.12
2019-06-08T11:44:53.159Z,14.79
2019-06-08T11:45:53.162Z,15.01
2019-06-08T11:46:53.238Z,14.79
2019-06-08T11:47:53.196Z,14.98
2019-06-08T11:48:53.106Z,15.59
2019-06-08T11:49:53.293Z,15.78
2019-06-08T11:50:53.075Z,15.69
2019-06-08T11:51:53.337Z,15.39
2019-06-08T11:52:53.248Z,15.50
2019-06-08T11:53:53.097Z,15.41
2019-06-08T11:54:53.973Z,15.61
2019-06-08T11:55:53.199Z,15.60
2019-06-08T11:56:53.215Z,15.48
2019-06-08T11:57:53.264Z,15.70
2019-06-08T11:58:53.229Z,15.70
2019-06-08T11:59:53.363Z,15.71
2019-06-08T12:00:53.349Z,15.63
2019-06-08T12:01:53.369Z,15.52
2019-06-08T12:02:53.229Z,15.42
2019-06-08T12:03:53.286Z,15.32
2019-06-08T12:04:53.342Z,15.43
2019-06-08T12:05:53.282Z,15.32
2019-06-08T12:06:53.318Z,15.22
2019-06-08T12:07:53.453Z,15.21
2019-06-08T12:09:53.360Z,15.51
2019-06-08T12:10:53.400Z,15.61
2019-06-08T12:11:53.399Z,15.49
2019-06-08T12:12:53.299Z,15.81
2019-06-08T12:13:53.339Z,15.81
2019-06-08T12:14:53.435Z,15.60
2019-06-08T12:15:53.454Z,15.91
2019-06-08T12:16:53.476Z,15.50
2019-06-08T12:17:53.614Z,15.70
2019-06-08T12:18:53.556Z,15.61
2019-06-08T12:19:53.682Z,15.82
2019-06-08T12:20:53.524Z,15.52
2019-06-08T12:21:53.548Z,15.52
2019-06-08T12:22:53.615Z,15.63
2019-06-08T12:23:53.451Z,15.52
2019-06-08T12:24:54.401Z,15.52
2019-06-08T12:25:53.578Z,15.21
2019-06-08T12:27:00.028Z,15.11
2019-06-08T12:27:53.810Z,15.53
2019-06-08T12:28:53.573Z,15.01
2019-06-08T12:29:53.573Z,15.09
2019-06-08T12:30:53.722Z,15.61
2019-06-08T12:31:54.411Z,15.60
2019-06-08T12:32:53.628Z,15.49
2019-06-08T12:33:53.737Z,15.69
2019-06-08T12:34:53.723Z,15.68
2019-06-08T12:35:53.712Z,15.78
2019-06-08T12:36:53.838Z,16.30
2019-06-08T12:37:53.767Z,15.68
2019-06-08T12:38:53.669Z,15.99
2019-06-08T12:39:54.415Z,15.67
2019-06-08T12:40:53.751Z,15.99
2019-06-08T12:41:54.342Z,16.19
2019-06-08T12:42:53.851Z,16.09
2019-06-08T12:43:53.809Z,16.09
2019-06-08T12:44:53.760Z,15.78
2019-06-08T12:45:53.869Z,15.68
2019-06-08T12:46:53.849Z,15.99
2019-06-08T12:47:53.866Z,16.08
2019-06-08T12:48:53.877Z,15.75
2019-06-08T12:49:53.940Z,16.27
2019-06-08T12:50:53.898Z,16.47
2019-06-08T12:51:53.796Z,16.38
2019-06-08T12:52:53.934Z,16.28
2019-06-08T12:53:53.819Z,16.29
2019-06-08T12:55:02.577Z,15.78
2019-06-08T12:55:53.932Z,15.48
2019-06-08T12:56:54.015Z,15.68
2019-06-08T12:57:53.959Z,15.78
2019-06-08T12:58:53.864Z,15.96
2019-06-08T12:59:53.879Z,16.47
2019-06-08T13:00:54.048Z,16.14
2019-06-08T13:01:54.110Z,16.33
2019-06-08T13:02:54.043Z,16.94
2019-06-08T13:03:53.955Z,16.94
2019-06-08T13:04:54.042Z,17.13
2019-06-08T13:05:54.045Z,16.83
2019-06-08T13:06:54.041Z,17.15
2019-06-08T13:07:54.058Z,16.94
2019-06-08T13:08:54.084Z,17.15
2019-06-08T13:09:54.833Z,17.05
2019-06-08T13:10:54.069Z,16.84
2019-06-08T13:11:56.389Z,17.15
2019-06-08T13:12:54.167Z,16.94
2019-06-08T13:13:54.935Z,17.16
2019-06-08T13:14:54.161Z,16.75
2019-06-08T13:15:54.123Z,16.96
2019-06-08T13:16:54.153Z,17.18
2019-06-08T13:17:54.225Z,16.66
2019-06-08T13:18:54.186Z,16.77
2019-06-08T13:19:54.203Z,16.46
2019-06-08T13:20:54.863Z,16.47
2019-06-08T13:21:54.185Z,16.88
2019-06-08T13:22:54.192Z,16.67
2019-06-08T13:23:54.311Z,17.08
2019-06-08T13:24:54.189Z,16.78
2019-06-08T13:25:54.271Z,16.67
2019-06-08T13:26:54.255Z,16.47
2019-06-08T13:27:54.933Z,16.47
2019-06-08T13:28:54.441Z,16.37
2019-06-08T13:29:54.295Z,16.38
2019-06-08T13:30:54.334Z,16.27
2019-06-08T13:31:54.361Z,16.48
2019-06-08T13:32:54.340Z,16.27
2019-06-08T13:33:54.341Z,16.59
2019-06-08T13:34:54.345Z,16.27
2019-06-08T13:35:54.401Z,16.49
2019-06-08T13:36:54.468Z,16.39
2019-06-08T13:37:54.470Z,16.50
2019-06-08T13:38:54.463Z,16.40
2019-06-08T13:39:54.465Z,16.10
2019-06-08T13:40:54.421Z,15.58
2019-06-08T13:41:54.487Z,15.37
2019-06-08T13:42:54.489Z,15.57
2019-06-08T13:43:54.444Z,15.67
2019-06-08T13:44:54.480Z,15.67
2019-06-08T13:45:54.482Z,15.96
2019-06-08T13:46:54.521Z,15.85
2019-06-08T13:47:54.552Z,16.05
2019-06-08T13:48:54.676Z,15.75
2019-06-08T13:49:54.522Z,16.03
2019-06-08T13:50:54.756Z,16.24
2019-06-08T13:51:54.625Z,16.52
2019-06-08T13:52:54.605Z,16.61
2019-06-08T13:53:54.604Z,16.50
2019-06-08T13:54:54.619Z,16.91
2019-06-08T13:55:56.672Z,16.92
2019-06-08T13:56:54.703Z,17.11
2019-06-08T13:57:54.700Z,17.11
2019-06-08T13:58:54.674Z,16.71
2019-06-08T13:59:54.630Z,17.02
2019-06-08T14:00:56.676Z,16.71
2019-06-08T14:01:54.719Z,16.91
2019-06-08T14:02:54.691Z,17.02
2019-06-08T14:03:54.775Z,16.92
2019-06-08T14:04:54.709Z,16.81
2019-06-08T14:05:54.714Z,17.22
2019-06-08T14:07:54.818Z,16.91
2019-06-08T14:08:54.836Z,17.00
2019-06-08T14:09:54.784Z,16.89
2019-06-08T14:10:54.780Z,17.70
2019-06-08T14:11:54.868Z,17.50
2019-06-08T14:12:54.885Z,17.71